South Saint Paul, MN

11:41 PM CST on December 28, 2014 (GMT -0600)
South Maplewood | Change Station
CLOSE
Current Station
Personal Weather Station
Location: Maplewood, MN
Elevation: 1020 ft
Nearby Weather Stations

Elev 1020 ft 44.92 °N, 92.99 °W | Updated 2 seconds ago

Clear
Clear
9.6 °F
Feels Like 10 °F
N
2.4
Wind Variable Wind from North
Gusts 2.4 mph

Today
High -- | Low -- °F
--% Chance of Precip.
Yesterday
High -- | Low -- °F
Precip. -- in
7:49 AM 4:38 PM
First Quarter, 55% visible
Pressure 30.37 in
Visibility 10.0 miles
Clouds Clear
Windchill 10 °F
Dew Point 2 °F
Humidity 70%
Rainfall 0.00 in
Snow Depth Not available.
UV 0 out of 12
Pollen .10 out of 12
Air Quality Not available.
Flu Activity Not available.
METAR KSGS 290530Z AUTO 35005KT 10SM CLR M11/M18 A3037 RMK AO2 T11111177

More Conditions Fewer Conditions

Pressure 30.37 in
Visibility 10.0 miles
Clouds Clear
Windchill 10 °F
Dew Point 2 °F
Humidity 70%
Rainfall 0.00 in
Snow Depth Not available.
UV 0 out of 12
Pollen .10 out of 12
Air Quality Not available.
Flu Activity Not available.
METAR KSGS 290530Z AUTO 35005KT 10SM CLR M11/M18 A3037 RMK AO2 T11111177

More Conditions Fewer Conditions

10-Day Weather Forecast

Almanac

Astronomy

Dec. 28, 2014 Rise Set
Actual Time
Civil Twilight
Nautical Twilight
Astronomical Twilight
Moon
Length of Visible Light
Length of Day
Tomorrow will be .
, % of the Moon is Illuminated

Today's Extremes

State Highs State Lows

Community

WunderPhotos

Upload Photos

1,781,542 photos uploaded!

WunderBlogs® & News

Nearby

Air Quality

  Air Quality AQ Index Pollutant
Not available.

Snow Depth

Station Depth Elevation

Earthquake Activity

City Distance Mag. Time & Date
Minimum magnitude displayed is 2.5.

Coastal Water Temperatures

Place Temperature

Nearby Weather Stations